Time;durP1;ratioP1;P1;durP2;ratioP2;P2;SDS_P1;SDS_P2;PMS_P1;PMS_P2;Temp;Humidity;BMP_temperature;BMP_pressure;BME280_temperature;BME280_humidity;BME280_pressure;Samples;Min_cycle;Max_cycle;Signal;HPM_P1;HPM_P2
2021/08/14 00:01:46;;;;;;;16.87;15.47;;;;;;;;;;4990559;28;24944;-50
2021/08/14 00:04:11;;;;;;;15.63;14.32;;;;;;;;;;4989989;28;24476;-51
2021/08/14 00:06:36;;;;;;;15.90;14.55;;;;;;;;;;4990389;28;24417;-50
2021/08/14 00:09:01;;;;;;;15.88;14.57;;;;;;;;;;4990170;28;25145;-50
2021/08/14 00:11:27;;;;;;;16.67;15.27;;;;;;;;;;4990947;28;24464;-50
2021/08/14 00:13:52;;;;;;;16.20;14.70;;;;;;;;;;4990497;28;24405;-51
2021/08/14 00:16:17;;;;;;;15.70;14.40;;;;;;;;;;4990103;28;24442;-50
2021/08/14 00:18:43;;;;;;;14.80;13.50;;;;;;;;;;4989895;28;24460;-50
2021/08/14 00:21:08;;;;;;;15.00;13.70;;;;;;;;;;4990157;28;24423;-51
2021/08/14 00:23:33;;;;;;;15.88;14.40;;;;;;;;;;4990783;28;24487;-50
2021/08/14 00:25:58;;;;;;;16.00;14.43;;;;;;;;;;4990244;28;24532;-50
2021/08/14 00:28:24;;;;;;;15.50;14.20;;;;;;;;;;4990176;28;24432;-50
2021/08/14 00:30:49;;;;;;;14.20;13.00;;;;;;;;;;4989939;28;25033;-50
2021/08/14 00:33:14;;;;;;;13.80;12.70;;;;;;;;;;4989691;28;25132;-50
2021/08/14 00:35:39;;;;;;;13.02;12.02;;;;;;;;;;4989523;28;24521;-51
2021/08/14 00:38:04;;;;;;;13.20;12.20;;;;;;;;;;4989475;28;24440;-49
2021/08/14 00:40:29;;;;;;;13.47;12.37;;;;;;;;;;4990254;28;25184;-50
2021/08/14 00:42:55;;;;;;;12.98;11.68;;;;;;;;;;4989643;28;24420;-50
2021/08/14 00:45:20;;;;;;;13.70;12.60;;;;;;;;;;4989873;28;24425;-50
2021/08/14 00:47:45;;;;;;;13.50;12.40;;;;;;;;;;4989647;28;24425;-50
2021/08/14 00:50:11;;;;;;;13.10;12.00;;;;;;;;;;4989016;28;24429;-50
2021/08/14 00:52:36;;;;;;;12.45;11.45;;;;;;;;;;4990013;28;25018;-50
2021/08/14 00:55:01;;;;;;;14.13;12.83;;;;;;;;;;4988800;28;24580;-50
2021/08/14 00:57:26;;;;;;;12.60;11.50;;;;;;;;;;4990046;28;24409;-50
2021/08/14 00:59:52;;;;;;;12.48;11.48;;;;;;;;;;4989037;28;24409;-50
2021/08/14 01:02:17;;;;;;;12.20;11.10;;;;;;;;;;4985571;28;24414;-50
2021/08/14 01:04:43;;;;;;;11.73;10.83;;;;;;;;;;4989385;28;24907;-49
2021/08/14 01:07:08;;;;;;;13.05;12.05;;;;;;;;;;4989675;28;24417;-50
2021/08/14 01:09:33;;;;;;;11.60;10.70;;;;;;;;;;4988997;28;25019;-49
2021/08/14 01:11:59;;;;;;;11.90;10.90;;;;;;;;;;4989743;28;24413;-49
2021/08/14 01:14:25;;;;;;;13.07;11.88;;;;;;;;;;4989806;28;25013;-49
2021/08/14 01:16:50;;;;;;;11.32;10.40;;;;;;;;;;4988782;28;24473;-50
2021/08/14 01:19:18;;;;;;;12.13;11.13;;;;;;;;;;4988988;28;24436;-50
2021/08/14 01:21:48;;;;;;;13.07;11.80;;;;;;;;;;4989165;28;24463;-49
2021/08/14 01:24:13;;;;;;;12.40;11.40;;;;;;;;;;4988936;28;25011;-49
2021/08/14 01:26:39;;;;;;;11.03;10.17;;;;;;;;;;4989476;28;24456;-49
2021/08/14 01:29:05;;;;;;;11.90;10.90;;;;;;;;;;4988550;28;24483;-51
2021/08/14 01:31:30;;;;;;;11.90;10.90;;;;;;;;;;4988641;28;24424;-50
2021/08/14 01:33:55;;;;;;;12.23;11.23;;;;;;;;;;4989176;28;25026;-50
2021/08/14 01:36:20;;;;;;;12.20;11.10;;;;;;;;;;4989285;28;24553;-51
2021/08/14 01:38:53;;;;;;;13.07;11.90;;;;;;;;;;4988447;28;24432;-50
2021/08/14 01:41:19;;;;;;;11.57;10.67;;;;;;;;;;4989023;28;24495;-50
2021/08/14 01:43:49;;;;;;;12.05;11.05;;;;;;;;;;4989297;28;24420;-50
2021/08/14 01:46:14;;;;;;;12.05;11.05;;;;;;;;;;4985790;28;24448;-49
2021/08/14 01:48:39;;;;;;;12.38;11.20;;;;;;;;;;4987995;28;24959;-50
2021/08/14 01:51:04;;;;;;;12.55;11.65;;;;;;;;;;4986301;28;24487;-50
2021/08/14 01:53:29;;;;;;;12.40;11.35;;;;;;;;;;4988061;28;24488;-50
2021/08/14 01:55:54;;;;;;;12.80;11.80;;;;;;;;;;4988375;28;24884;-50
2021/08/14 01:58:20;;;;;;;13.15;12.05;;;;;;;;;;4988954;28;24422;-49
2021/08/14 02:00:45;;;;;;;12.80;11.60;;;;;;;;;;4987794;28;24456;-50
2021/08/14 02:03:10;;;;;;;12.90;11.70;;;;;;;;;;4988288;28;24412;-50
2021/08/14 02:05:35;;;;;;;13.10;12.02;;;;;;;;;;4988861;28;24501;-50
2021/08/14 02:08:00;;;;;;;12.75;11.75;;;;;;;;;;4988213;28;24409;-51
2021/08/14 02:10:25;;;;;;;12.97;12.07;;;;;;;;;;4988459;28;24417;-50
2021/08/14 02:12:50;;;;;;;12.38;11.27;;;;;;;;;;4988810;28;25163;-49
2021/08/14 02:15:15;;;;;;;11.07;10.27;;;;;;;;;;4987236;28;24967;-50
2021/08/14 02:17:41;;;;;;;12.20;11.20;;;;;;;;;;4987619;28;24492;-49
2021/08/14 02:20:06;;;;;;;13.88;12.77;;;;;;;;;;4988247;28;24425;-50
2021/08/14 02:22:31;;;;;;;12.67;11.67;;;;;;;;;;4988062;28;24421;-50
2021/08/14 02:24:56;;;;;;;14.23;13.13;;;;;;;;;;4988081;28;24496;-50
2021/08/14 02:27:21;;;;;;;12.70;11.70;;;;;;;;;;4988030;28;24409;-50
2021/08/14 02:29:47;;;;;;;13.27;12.17;;;;;;;;;;4985956;28;24816;-49
2021/08/14 02:32:12;;;;;;;12.40;11.40;;;;;;;;;;4986270;28;24935;-50
2021/08/14 02:34:37;;;;;;;12.63;11.63;;;;;;;;;;4986678;28;25089;-50
2021/08/14 02:37:03;;;;;;;12.50;11.40;;;;;;;;;;4987248;28;24429;-51
2021/08/14 02:39:28;;;;;;;13.57;12.38;;;;;;;;;;4987705;28;24435;-51
2021/08/14 02:41:53;;;;;;;12.40;11.40;;;;;;;;;;4987322;28;24712;-50
2021/08/14 02:44:18;;;;;;;12.00;10.90;;;;;;;;;;4986784;28;24436;-50
2021/08/14 02:46:43;;;;;;;12.60;11.50;;;;;;;;;;4986818;28;24416;-51
2021/08/14 02:49:08;;;;;;;12.90;11.70;;;;;;;;;;4987400;28;24804;-51
2021/08/14 02:51:34;;;;;;;12.52;11.52;;;;;;;;;;4986467;28;24907;-51
2021/08/14 02:53:59;;;;;;;12.57;11.57;;;;;;;;;;4987540;28;24531;-50
2021/08/14 02:56:24;;;;;;;12.30;11.20;;;;;;;;;;4986949;28;24444;-50
2021/08/14 02:58:49;;;;;;;12.35;11.35;;;;;;;;;;4987328;28;24432;-50
2021/08/14 03:01:14;;;;;;;11.07;10.07;;;;;;;;;;4991222;28;24479;-50
2021/08/14 03:03:39;;;;;;;12.40;11.38;;;;;;;;;;4991558;28;24986;-51
2021/08/14 03:06:20;;;;;;;12.40;11.40;;;;;;;;;;4991395;28;24508;-50
2021/08/14 03:08:45;;;;;;;10.50;9.70;;;;;;;;;;4991443;28;24420;-50
2021/08/14 03:11:10;;;;;;;11.50;10.60;;;;;;;;;;4991524;28;24505;-51
2021/08/14 03:13:35;;;;;;;11.10;10.30;;;;;;;;;;4992043;28;24448;-50
2021/08/14 03:16:01;;;;;;;11.70;10.80;;;;;;;;;;4990682;28;24474;-50
2021/08/14 03:18:26;;;;;;;10.35;9.55;;;;;;;;;;4991610;28;24448;-50
2021/08/14 03:20:51;;;;;;;11.10;10.20;;;;;;;;;;4991450;28;25002;-50
2021/08/14 03:23:16;;;;;;;10.65;9.85;;;;;;;;;;4991906;28;24408;-50
2021/08/14 03:25:41;;;;;;;10.60;9.70;;;;;;;;;;4990932;28;24456;-50
2021/08/14 03:28:06;;;;;;;10.93;10.03;;;;;;;;;;4990656;28;24946;-50
2021/08/14 03:30:31;;;;;;;10.97;10.17;;;;;;;;;;4990954;28;24480;-50
2021/08/14 03:32:57;;;;;;;10.55;9.65;;;;;;;;;;4991013;28;24923;-50
2021/08/14 03:35:22;;;;;;;10.40;9.50;;;;;;;;;;4991521;28;24532;-50
2021/08/14 03:37:47;;;;;;;10.30;9.50;;;;;;;;;;4991052;28;24978;-50
2021/08/14 03:40:12;;;;;;;10.30;9.50;;;;;;;;;;4990939;28;24522;-50
2021/08/14 03:42:37;;;;;;;10.00;9.20;;;;;;;;;;4990688;28;24413;-50
2021/08/14 03:45:03;;;;;;;10.03;9.30;;;;;;;;;;4990739;28;24484;-49
2021/08/14 03:47:28;;;;;;;10.77;9.87;;;;;;;;;;4990978;28;24553;-49
2021/08/14 03:49:53;;;;;;;10.40;9.50;;;;;;;;;;4990214;28;24428;-49
2021/08/14 03:52:20;;;;;;;9.90;9.10;;;;;;;;;;4990336;28;24842;-48
2021/08/14 03:54:47;;;;;;;9.35;8.65;;;;;;;;;;4990100;28;24503;-50
2021/08/14 03:57:12;;;;;;;9.50;8.70;;;;;;;;;;4989916;28;24520;-50
2021/08/14 03:59:37;;;;;;;11.05;10.25;;;;;;;;;;4989966;28;24505;-50
2021/08/14 04:02:02;;;;;;;10.02;9.27;;;;;;;;;;4990148;28;24417;-50
2021/08/14 04:04:27;;;;;;;9.77;9.07;;;;;;;;;;4990707;28;24417;-52
2021/08/14 04:06:52;;;;;;;10.70;9.90;;;;;;;;;;4990552;28;24456;-51
2021/08/14 04:09:18;;;;;;;8.95;8.25;;;;;;;;;;4989928;28;24479;-50
2021/08/14 04:11:43;;;;;;;8.93;8.27;;;;;;;;;;4989328;28;24413;-49
2021/08/14 04:14:09;;;;;;;9.73;8.93;;;;;;;;;;4990564;28;24417;-50
2021/08/14 04:16:34;;;;;;;9.00;8.30;;;;;;;;;;4990039;28;24484;-50
2021/08/14 04:18:59;;;;;;;10.27;9.57;;;;;;;;;;4990621;28;24413;-50
2021/08/14 04:21:24;;;;;;;9.10;8.40;;;;;;;;;;4990479;28;24795;-50
2021/08/14 04:23:49;;;;;;;10.30;9.50;;;;;;;;;;4989823;28;24831;-50
2021/08/14 04:26:14;;;;;;;9.50;8.80;;;;;;;;;;4989571;28;24496;-50
2021/08/14 04:28:39;;;;;;;9.07;8.38;;;;;;;;;;4983667;28;24448;-50
2021/08/14 04:31:05;;;;;;;9.65;8.90;;;;;;;;;;4987057;28;24820;-51
2021/08/14 04:33:30;;;;;;;9.65;8.85;;;;;;;;;;4988699;28;24432;-50
2021/08/14 04:35:55;;;;;;;9.02;8.23;;;;;;;;;;4988812;28;24437;-50
2021/08/14 04:38:20;;;;;;;9.15;8.35;;;;;;;;;;4989434;28;24796;-49
2021/08/14 04:40:45;;;;;;;9.40;8.60;;;;;;;;;;4989321;28;24500;-49
2021/08/14 04:43:11;;;;;;;8.40;7.80;;;;;;;;;;4988312;28;24417;-50
2021/08/14 04:45:36;;;;;;;8.83;8.13;;;;;;;;;;4989949;28;24476;-49
2021/08/14 04:48:01;;;;;;;8.90;8.20;;;;;;;;;;4989405;28;24416;-50
2021/08/14 04:50:26;;;;;;;8.60;7.90;;;;;;;;;;4990154;28;24491;-49
2021/08/14 04:52:51;;;;;;;7.40;6.90;;;;;;;;;;4988583;28;25068;-50
2021/08/14 04:55:16;;;;;;;7.20;6.60;;;;;;;;;;4988710;28;24421;-50
2021/08/14 04:57:41;;;;;;;7.00;6.50;;;;;;;;;;4989634;28;24428;-49
2021/08/14 05:00:07;;;;;;;8.57;7.88;;;;;;;;;;4989268;28;24412;-51
2021/08/14 05:02:32;;;;;;;8.70;7.90;;;;;;;;;;4984998;28;24471;-49
2021/08/14 05:04:57;;;;;;;7.53;6.93;;;;;;;;;;4989342;28;24786;-51
2021/08/14 05:07:22;;;;;;;8.20;7.60;;;;;;;;;;4990238;28;24406;-49
2021/08/14 05:09:48;;;;;;;8.90;8.00;;;;;;;;;;4989692;28;24463;-50
2021/08/14 05:12:13;;;;;;;7.00;6.40;;;;;;;;;;4989777;28;24393;-50
2021/08/14 05:14:38;;;;;;;8.48;7.88;;;;;;;;;;4989732;28;24985;-50
2021/08/14 05:17:03;;;;;;;7.70;7.10;;;;;;;;;;4989040;28;24459;-50
2021/08/14 05:19:28;;;;;;;8.40;7.80;;;;;;;;;;4988229;28;24416;-51
2021/08/14 05:21:54;;;;;;;8.17;7.57;;;;;;;;;;4982577;28;24424;-51
2021/08/14 05:24:19;;;;;;;7.60;6.90;;;;;;;;;;4979886;28;24514;-51
2021/08/14 05:26:44;;;;;;;9.10;8.40;;;;;;;;;;4979525;28;25579;-52
2021/08/14 05:29:09;;;;;;;8.40;7.77;;;;;;;;;;4984683;28;24471;-52
2021/08/14 05:31:35;;;;;;;8.43;7.63;;;;;;;;;;4984711;28;25195;-52
2021/08/14 05:34:04;;;;;;;7.93;7.27;;;;;;;;;;4984066;28;24401;-51
2021/08/14 05:36:30;;;;;;;8.18;7.43;;;;;;;;;;4980912;28;24448;-51
2021/08/14 05:38:55;;;;;;;8.27;7.47;;;;;;;;;;4979706;28;24401;-51
2021/08/14 05:41:20;;;;;;;7.47;6.88;;;;;;;;;;4978382;28;24464;-52
2021/08/14 05:43:45;;;;;;;8.17;7.47;;;;;;;;;;4980993;28;24429;-51
2021/08/14 05:46:10;;;;;;;8.50;7.90;;;;;;;;;;4983250;28;24835;-52
2021/08/14 05:48:37;;;;;;;7.60;6.90;;;;;;;;;;4984232;28;25168;-51
2021/08/14 05:51:02;;;;;;;8.10;7.47;;;;;;;;;;4979047;28;24428;-51
2021/08/14 05:53:27;;;;;;;8.45;7.75;;;;;;;;;;4978535;28;24433;-51
2021/08/14 05:55:52;;;;;;;7.87;7.27;;;;;;;;;;4979273;28;24686;-50
2021/08/14 05:58:17;;;;;;;8.30;7.60;;;;;;;;;;4982812;28;24978;-53
2021/08/14 06:00:42;;;;;;;9.07;8.27;;;;;;;;;;4982115;28;24420;-50
2021/08/14 06:03:07;;;;;;;9.63;8.73;;;;;;;;;;4981812;28;24464;-50
2021/08/14 06:05:33;;;;;;;9.10;8.40;;;;;;;;;;4979409;28;24449;-50
2021/08/14 06:07:58;;;;;;;9.20;8.40;;;;;;;;;;4981727;28;24420;-51
2021/08/14 06:10:23;;;;;;;7.40;6.80;;;;;;;;;;4988911;28;24416;-51
2021/08/14 06:12:48;;;;;;;8.20;7.50;;;;;;;;;;4988140;28;24443;-50
2021/08/14 06:15:13;;;;;;;7.93;7.23;;;;;;;;;;4987829;28;24424;-50
2021/08/14 06:17:39;;;;;;;9.77;9.00;;;;;;;;;;4988240;28;24417;-50
2021/08/14 06:20:04;;;;;;;8.50;7.90;;;;;;;;;;4988354;28;24460;-50
2021/08/14 06:22:30;;;;;;;7.93;7.23;;;;;;;;;;4986988;28;24405;-50
2021/08/14 06:24:55;;;;;;;9.82;8.93;;;;;;;;;;4988394;28;24416;-52
2021/08/14 06:27:20;;;;;;;7.80;7.20;;;;;;;;;;4986960;28;24425;-51
2021/08/14 06:29:46;;;;;;;8.23;7.53;;;;;;;;;;4985165;28;24427;-52
2021/08/14 06:32:11;;;;;;;8.50;7.90;;;;;;;;;;4978284;28;24429;-52
2021/08/14 06:34:36;;;;;;;7.73;7.13;;;;;;;;;;4984231;28;24417;-52
2021/08/14 06:37:01;;;;;;;8.67;7.90;;;;;;;;;;4987451;28;24427;-52
2021/08/14 06:39:27;;;;;;;9.23;8.43;;;;;;;;;;4987539;28;24435;-52
2021/08/14 06:41:52;;;;;;;8.00;7.40;;;;;;;;;;4987254;28;24768;-52
2021/08/14 06:44:17;;;;;;;8.05;7.45;;;;;;;;;;4987199;28;24405;-51
2021/08/14 06:46:42;;;;;;;7.88;7.28;;;;;;;;;;4987631;28;24507;-52
2021/08/14 06:49:07;;;;;;;7.75;7.15;;;;;;;;;;4987448;28;24501;-52
2021/08/14 06:51:32;;;;;;;8.30;7.50;;;;;;;;;;4986663;28;24483;-52
2021/08/14 06:53:58;;;;;;;8.15;7.45;;;;;;;;;;4986707;28;24476;-51
2021/08/14 06:56:23;;;;;;;10.43;9.43;;;;;;;;;;4987497;28;24484;-51
2021/08/14 06:58:48;;;;;;;8.37;7.67;;;;;;;;;;4988009;28;24420;-52
2021/08/14 07:01:13;;;;;;;7.53;6.83;;;;;;;;;;4986773;28;24413;-51
2021/08/14 07:03:39;;;;;;;7.38;6.88;;;;;;;;;;4986849;28;24452;-53
2021/08/14 07:06:04;;;;;;;9.77;8.87;;;;;;;;;;4985889;28;24421;-52
2021/08/14 07:08:30;;;;;;;7.63;7.05;;;;;;;;;;4980192;28;24421;-52
2021/08/14 07:10:55;;;;;;;7.80;7.20;;;;;;;;;;4983144;28;24955;-53
2021/08/14 07:13:20;;;;;;;7.47;6.88;;;;;;;;;;4981226;28;24423;-52
2021/08/14 07:15:45;;;;;;;7.43;6.83;;;;;;;;;;4983325;28;24777;-52
2021/08/14 07:18:10;;;;;;;9.30;8.60;;;;;;;;;;4962219;28;24401;-52
2021/08/14 07:20:35;;;;;;;8.20;7.60;;;;;;;;;;4979024;28;24677;-52
2021/08/14 07:23:01;;;;;;;7.57;6.97;;;;;;;;;;4969179;28;25099;-52
2021/08/14 07:25:26;;;;;;;7.50;6.87;;;;;;;;;;4971503;28;24425;-52
2021/08/14 07:27:52;;;;;;;7.80;7.20;;;;;;;;;;4981830;28;24428;-51
2021/08/14 07:30:17;;;;;;;7.43;6.72;;;;;;;;;;4978319;28;25037;-52
2021/08/14 07:32:42;;;;;;;7.40;6.80;;;;;;;;;;4977024;28;24836;-53
2021/08/14 07:35:08;;;;;;;8.23;7.53;;;;;;;;;;4975610;28;24436;-53
2021/08/14 07:37:33;;;;;;;7.95;7.15;;;;;;;;;;4980271;28;24495;-55
2021/08/14 07:39:59;;;;;;;6.87;6.37;;;;;;;;;;4978798;28;24417;-54
2021/08/14 07:42:24;;;;;;;8.33;7.50;;;;;;;;;;4976976;28;24460;-54
2021/08/14 07:44:49;;;;;;;7.50;6.90;;;;;;;;;;4973946;28;24479;-53
2021/08/14 07:47:14;;;;;;;6.75;6.25;;;;;;;;;;4977147;28;24486;-53
2021/08/14 07:49:40;;;;;;;6.70;6.15;;;;;;;;;;4977991;28;24413;-54
2021/08/14 07:52:05;;;;;;;6.72;6.22;;;;;;;;;;4984508;28;24456;-53
2021/08/14 07:54:30;;;;;;;8.30;7.50;;;;;;;;;;4982008;28;24456;-52
2021/08/14 07:56:56;;;;;;;7.95;7.35;;;;;;;;;;4978915;28;25019;-52
2021/08/14 07:59:21;;;;;;;7.85;7.25;;;;;;;;;;4978228;28;24409;-53
2021/08/14 08:01:46;;;;;;;6.87;6.27;;;;;;;;;;4978700;28;24412;-52
2021/08/14 08:04:11;;;;;;;10.57;7.53;;;;;;;;;;4984334;28;24515;-53
2021/08/14 08:06:37;;;;;;;6.97;6.27;;;;;;;;;;4983929;28;24401;-52
2021/08/14 08:09:02;;;;;;;8.50;7.80;;;;;;;;;;4980454;28;24453;-53
2021/08/14 08:11:27;;;;;;;7.55;7.05;;;;;;;;;;4978740;28;24993;-53
2021/08/14 08:13:52;;;;;;;7.43;6.83;;;;;;;;;;4978376;28;24416;-53
2021/08/14 08:16:17;;;;;;;8.37;7.47;;;;;;;;;;4983960;28;24425;-53
2021/08/14 08:18:43;;;;;;;6.45;5.85;;;;;;;;;;4981797;28;25005;-53
2021/08/14 08:21:08;;;;;;;7.00;6.40;;;;;;;;;;4980149;28;24564;-52
2021/08/14 08:23:33;;;;;;;8.00;6.90;;;;;;;;;;4970019;28;24421;-53
2021/08/14 08:25:58;;;;;;;7.82;6.45;;;;;;;;;;4975035;28;24494;-66
2021/08/14 08:28:23;;;;;;;6.10;5.60;;;;;;;;;;4985624;28;25185;-66
2021/08/14 08:30:49;;;;;;;5.27;4.93;;;;;;;;;;4984494;28;24417;-66
2021/08/14 08:33:14;;;;;;;5.17;4.77;;;;;;;;;;4982861;28;24389;-66
2021/08/14 08:35:39;;;;;;;5.50;5.10;;;;;;;;;;4982619;28;25662;-66
2021/08/14 08:38:04;;;;;;;5.90;5.40;;;;;;;;;;4984616;28;24377;-65
2021/08/14 08:40:32;;;;;;;6.03;5.53;;;;;;;;;;4985417;28;24409;-65
2021/08/14 08:42:57;;;;;;;6.72;6.20;;;;;;;;;;4980762;28;24391;-65
2021/08/14 08:45:22;;;;;;;5.43;5.03;;;;;;;;;;4980504;28;24417;-66
2021/08/14 08:47:48;;;;;;;6.37;5.87;;;;;;;;;;4980943;28;25068;-65
2021/08/14 08:50:14;;;;;;;5.10;4.70;;;;;;;;;;4984144;28;24503;-65
2021/08/14 08:52:40;;;;;;;5.30;4.90;;;;;;;;;;4985305;28;24523;-65
2021/08/14 08:55:05;;;;;;;5.60;5.10;;;;;;;;;;4981253;28;24451;-65
2021/08/14 08:57:31;;;;;;;5.95;5.45;;;;;;;;;;4981970;28;24413;-64
2021/08/14 08:59:57;;;;;;;6.17;5.67;;;;;;;;;;4979943;28;25035;-64
2021/08/14 09:02:30;;;;;;;5.68;5.18;;;;;;;;;;4985626;28;24417;-64
2021/08/14 09:05:07;;;;;;;5.47;4.97;;;;;;;;;;4983850;28;24417;-63
2021/08/14 09:07:33;;;;;;;6.18;5.68;;;;;;;;;;4983451;28;24405;-65
2021/08/14 09:09:58;;;;;;;5.40;5.00;;;;;;;;;;4966613;28;24465;-63
2021/08/14 09:12:30;;;;;;;6.13;5.60;;;;;;;;;;4980028;28;24801;-62
2021/08/14 09:14:55;;;;;;;8.32;6.28;;;;;;;;;;4979744;28;25149;-62
2021/08/14 09:17:25;;;;;;;6.13;5.57;;;;;;;;;;4985814;28;24421;-62
2021/08/14 09:20:03;;;;;;;6.25;5.75;;;;;;;;;;4984339;28;24416;-62
2021/08/14 09:22:28;;;;;;;6.22;5.72;;;;;;;;;;4979796;28;24507;-63
2021/08/14 09:24:53;;;;;;;5.57;5.18;;;;;;;;;;4979472;28;24583;-63
2021/08/14 09:27:18;;;;;;;6.20;5.70;;;;;;;;;;4981509;28;24524;-62
2021/08/14 09:29:46;;;;;;;6.03;5.63;;;;;;;;;;4983719;28;24424;-63
2021/08/14 09:32:12;;;;;;;6.13;5.53;;;;;;;;;;4985278;28;24424;-65
2021/08/14 09:34:39;;;;;;;5.80;5.40;;;;;;;;;;4983526;28;24393;-62
2021/08/14 09:37:05;;;;;;;5.18;4.78;;;;;;;;;;4978533;28;24752;-61
2021/08/14 09:39:32;;;;;;;5.73;5.23;;;;;;;;;;4979085;28;25044;-63
2021/08/14 09:42:07;;;;;;;5.13;4.63;;;;;;;;;;4981551;28;24408;-61
2021/08/14 09:44:36;;;;;;;6.70;5.60;;;;;;;;;;4984704;28;24421;-61
2021/08/14 09:47:08;;;;;;;6.40;5.90;;;;;;;;;;4983126;28;24969;-62
2021/08/14 09:49:49;;;;;;;6.38;5.88;;;;;;;;;;4980683;28;24515;-60
2021/08/14 09:52:18;;;;;;;5.97;5.47;;;;;;;;;;4979237;28;24423;-61
2021/08/14 09:54:43;;;;;;;5.43;4.93;;;;;;;;;;4980963;28;24456;-61
2021/08/14 09:57:12;;;;;;;6.18;5.57;;;;;;;;;;4984929;28;24455;-63
2021/08/14 09:59:38;;;;;;;6.55;5.68;;;;;;;;;;4982922;28;24421;-61
2021/08/14 10:02:05;;;;;;;5.63;5.13;;;;;;;;;;4979241;28;24524;-61
2021/08/14 10:04:30;;;;;;;5.32;4.93;;;;;;;;;;4979232;28;24415;-60
2021/08/14 10:06:55;;;;;;;6.13;5.63;;;;;;;;;;4981303;28;24433;-60
2021/08/14 10:09:21;;;;;;;5.40;4.90;;;;;;;;;;4984719;28;24958;-62
2021/08/14 10:11:47;;;;;;;5.60;5.20;;;;;;;;;;4982246;28;24453;-63
2021/08/14 10:14:13;;;;;;;5.87;5.37;;;;;;;;;;4978634;28;24417;-61
2021/08/14 10:16:38;;;;;;;5.70;5.20;;;;;;;;;;4979867;28;24501;-62
2021/08/14 10:19:03;;;;;;;5.37;4.97;;;;;;;;;;4961505;28;24417;-62
2021/08/14 10:21:28;;;;;;;6.03;5.53;;;;;;;;;;4976532;28;24440;-62
2021/08/14 10:23:55;;;;;;;4.97;4.57;;;;;;;;;;4974171;28;24426;-63
2021/08/14 10:26:25;;;;;;;4.80;4.40;;;;;;;;;;4970207;28;25102;-62
2021/08/14 10:28:52;;;;;;;5.50;5.10;;;;;;;;;;4978873;28;24516;-61
2021/08/14 10:31:29;;;;;;;4.35;4.05;;;;;;;;;;4979034;28;24408;-61
2021/08/14 10:33:54;;;;;;;5.13;4.65;;;;;;;;;;4979137;28;24503;-61
2021/08/14 10:36:20;;;;;;;5.03;4.63;;;;;;;;;;4979574;28;24701;-62
2021/08/14 10:38:50;;;;;;;4.27;3.90;;;;;;;;;;4979054;28;25065;-62
2021/08/14 10:41:16;;;;;;;3.92;3.67;;;;;;;;;;4983721;28;24440;-63
2021/08/14 10:43:53;;;;;;;4.50;4.15;;;;;;;;;;4984185;28;24412;-62
2021/08/14 10:46:31;;;;;;;5.38;4.97;;;;;;;;;;4981003;28;25019;-62
2021/08/14 10:48:56;;;;;;;4.90;4.50;;;;;;;;;;4978856;28;24736;-62
2021/08/14 10:51:21;;;;;;;4.18;3.85;;;;;;;;;;4982616;28;24404;-62
2021/08/14 10:53:50;;;;;;;5.40;5.00;;;;;;;;;;4981693;28;24433;-63
2021/08/14 10:56:35;;;;;;;4.90;4.50;;;;;;;;;;4984262;28;24460;-63
2021/08/14 10:59:00;;;;;;;5.68;5.28;;;;;;;;;;4978869;28;24467;-62
2021/08/14 11:01:31;;;;;;;4.85;4.45;;;;;;;;;;4979070;28;24440;-62
2021/08/14 11:03:58;;;;;;;5.20;4.70;;;;;;;;;;4977737;28;24943;-62
2021/08/14 11:06:26;;;;;;;4.70;4.30;;;;;;;;;;4982079;28;24432;-62
2021/08/14 11:09:10;;;;;;;4.53;4.17;;;;;;;;;;4981831;28;24445;-64
2021/08/14 11:11:36;;;;;;;4.32;4.03;;;;;;;;;;4980305;28;24947;-62
2021/08/14 11:14:09;;;;;;;3.50;3.30;;;;;;;;;;4978626;28;24420;-62
2021/08/14 11:16:52;;;;;;;4.90;4.60;;;;;;;;;;4977613;28;24460;-61
2021/08/14 11:19:47;;;;;;;5.20;4.80;;;;;;;;;;4964653;28;24390;-62
2021/08/14 11:22:20;;;;;;;4.95;4.55;;;;;;;;;;4950688;28;24505;-61
2021/08/14 11:24:45;;;;;;;4.78;4.38;;;;;;;;;;4973284;28;24467;-62
2021/08/14 11:27:21;;;;;;;5.20;4.80;;;;;;;;;;4982222;28;24963;-63
2021/08/14 11:29:49;;;;;;;4.20;3.90;;;;;;;;;;4982269;28;24687;-62
2021/08/14 11:32:16;;;;;;;4.10;3.80;;;;;;;;;;4987895;28;24404;-63
2021/08/14 11:34:42;;;;;;;4.60;4.20;;;;;;;;;;4987798;28;24489;-62
2021/08/14 11:37:09;;;;;;;4.00;3.70;;;;;;;;;;4985904;28;24404;-62
2021/08/14 11:39:34;;;;;;;4.10;3.80;;;;;;;;;;4983549;28;24464;-63
2021/08/14 11:41:59;;;;;;;3.80;3.50;;;;;;;;;;4981813;28;24642;-62
2021/08/14 11:44:25;;;;;;;4.50;4.20;;;;;;;;;;4985545;28;24425;-62
2021/08/14 11:46:59;;;;;;;4.38;4.07;;;;;;;;;;4985604;28;24507;-63
2021/08/14 11:49:24;;;;;;;5.30;4.80;;;;;;;;;;4987754;28;24540;-62
2021/08/14 11:51:59;;;;;;;4.13;3.75;;;;;;;;;;4981687;28;24492;-61
2021/08/14 11:54:28;;;;;;;4.00;3.70;;;;;;;;;;4982877;28;24441;-62
2021/08/14 11:56:53;;;;;;;5.20;4.85;;;;;;;;;;4983118;28;24421;-62
2021/08/14 11:59:29;;;;;;;4.65;4.30;;;;;;;;;;4987087;28;24412;-62
2021/08/14 12:01:54;;;;;;;5.30;4.80;;;;;;;;;;4983034;28;24572;-62
2021/08/14 12:04:19;;;;;;;5.40;5.00;;;;;;;;;;4981863;28;24512;-62
2021/08/14 12:06:53;;;;;;;5.15;4.75;;;;;;;;;;4985215;28;24939;-62
2021/08/14 12:09:19;;;;;;;5.38;4.97;;;;;;;;;;4986840;28;24698;-64
2021/08/14 12:11:44;;;;;;;5.20;4.80;;;;;;;;;;4980561;28;24964;-62
2021/08/14 12:14:12;;;;;;;4.67;4.27;;;;;;;;;;4983637;28;24486;-63
2021/08/14 12:16:42;;;;;;;5.10;4.70;;;;;;;;;;4982925;28;24512;-64
2021/08/14 12:19:17;;;;;;;4.90;4.50;;;;;;;;;;4983141;28;24516;-62
2021/08/14 12:21:43;;;;;;;4.57;4.27;;;;;;;;;;4985401;28;24556;-62
2021/08/14 12:24:09;;;;;;;4.30;4.00;;;;;;;;;;4984923;28;24506;-62
2021/08/14 12:26:34;;;;;;;4.05;3.75;;;;;;;;;;4983072;28;24421;-63
2021/08/14 12:29:01;;;;;;;4.90;4.50;;;;;;;;;;4980451;28;24499;-63
2021/08/14 12:31:26;;;;;;;5.33;4.87;;;;;;;;;;4981347;28;24456;-62
2021/08/14 12:33:52;;;;;;;5.22;4.72;;;;;;;;;;4984230;28;24505;-63
2021/08/14 12:36:37;;;;;;;4.60;4.20;;;;;;;;;;4986402;28;24456;-63
2021/08/14 12:39:03;;;;;;;5.10;4.65;;;;;;;;;;4980758;28;24952;-63
2021/08/14 12:41:35;;;;;;;4.15;3.85;;;;;;;;;;4982804;28;24420;-63
2021/08/14 12:44:00;;;;;;;4.70;4.30;;;;;;;;;;4985191;28;24416;-64
2021/08/14 12:46:26;;;;;;;4.60;4.30;;;;;;;;;;4986732;28;24474;-63
2021/08/14 12:49:10;;;;;;;3.77;3.57;;;;;;;;;;4980322;28;24927;-62
2021/08/14 12:51:35;;;;;;;4.13;3.83;;;;;;;;;;4980031;28;24421;-62
2021/08/14 12:54:10;;;;;;;4.00;3.70;;;;;;;;;;4984836;28;24433;-63
2021/08/14 12:56:38;;;;;;;4.10;3.80;;;;;;;;;;4990518;28;24843;-63
2021/08/14 12:59:13;;;;;;;3.70;3.40;;;;;;;;;;4986470;28;24516;-63
2021/08/14 13:01:49;;;;;;;4.65;4.35;;;;;;;;;;4990234;28;24707;-63
2021/08/14 13:04:15;;;;;;;3.97;3.67;;;;;;;;;;4994148;28;24504;-63
2021/08/14 13:06:40;;;;;;;4.60;4.20;;;;;;;;;;4989357;28;24512;-63
2021/08/14 13:09:05;;;;;;;4.50;4.10;;;;;;;;;;4989632;28;24416;-63
2021/08/14 13:11:30;;;;;;;3.88;3.60;;;;;;;;;;4986948;28;24475;-63
2021/08/14 13:13:55;;;;;;;3.53;3.33;;;;;;;;;;4988063;28;24878;-63
2021/08/14 13:16:20;;;;;;;4.13;3.83;;;;;;;;;;4989965;28;24397;-63
2021/08/14 13:18:45;;;;;;;3.90;3.60;;;;;;;;;;4997398;28;24458;-63
2021/08/14 13:21:11;;;;;;;3.70;3.40;;;;;;;;;;4971847;28;24417;-63
2021/08/14 13:23:36;;;;;;;4.20;3.90;;;;;;;;;;4989177;28;24420;-63
2021/08/14 13:26:01;;;;;;;4.30;4.00;;;;;;;;;;4987631;28;24780;-63
2021/08/14 13:28:26;;;;;;;3.90;3.60;;;;;;;;;;4986547;28;25030;-64
2021/08/14 13:30:51;;;;;;;4.20;3.90;;;;;;;;;;4987711;28;24416;-62
2021/08/14 13:33:17;;;;;;;5.00;4.60;;;;;;;;;;4986634;28;24764;-63
2021/08/14 13:35:42;;;;;;;4.40;4.10;;;;;;;;;;4982372;28;24708;-64
2021/08/14 13:38:07;;;;;;;3.60;3.40;;;;;;;;;;4983629;28;24688;-63
2021/08/14 13:40:32;;;;;;;3.50;3.30;;;;;;;;;;4982503;28;25214;-63
2021/08/14 13:42:57;;;;;;;3.87;3.57;;;;;;;;;;4979747;28;25187;-64
2021/08/14 13:45:22;;;;;;;4.38;4.07;;;;;;;;;;4980148;28;24645;-62
2021/08/14 13:47:48;;;;;;;4.50;4.20;;;;;;;;;;4988060;28;24423;-62
2021/08/14 13:50:13;;;;;;;4.27;3.97;;;;;;;;;;4988381;28;24414;-63
2021/08/14 13:52:38;;;;;;;4.30;3.90;;;;;;;;;;4985694;28;24417;-63
2021/08/14 13:55:04;;;;;;;4.03;3.73;;;;;;;;;;4981532;28;24472;-62
2021/08/14 13:57:29;;;;;;;4.10;3.70;;;;;;;;;;4984680;28;24963;-63
2021/08/14 13:59:54;;;;;;;4.60;4.20;;;;;;;;;;4986176;28;24425;-61
2021/08/14 14:02:19;;;;;;;4.20;3.90;;;;;;;;;;4986813;28;24416;-63
2021/08/14 14:04:44;;;;;;;4.68;4.28;;;;;;;;;;4981254;28;24434;-63
2021/08/14 14:07:09;;;;;;;4.85;4.45;;;;;;;;;;4979812;28;24435;-63
2021/08/14 14:09:35;;;;;;;3.80;3.50;;;;;;;;;;4984637;28;24499;-63
2021/08/14 14:12:00;;;;;;;4.38;3.97;;;;;;;;;;4981936;28;24948;-63
2021/08/14 14:14:26;;;;;;;3.93;3.63;;;;;;;;;;4983874;28;24500;-62
2021/08/14 14:16:51;;;;;;;3.90;3.60;;;;;;;;;;4981247;28;25453;-63
2021/08/14 14:19:16;;;;;;;4.57;4.18;;;;;;;;;;4984906;28;24408;-62
2021/08/14 14:21:42;;;;;;;5.25;4.85;;;;;;;;;;4984939;28;24919;-62
2021/08/14 14:24:07;;;;;;;4.90;4.40;;;;;;;;;;4980244;28;24397;-63
2021/08/14 14:26:32;;;;;;;5.20;3.90;;;;;;;;;;4978642;28;24521;-63
2021/08/14 14:28:57;;;;;;;4.60;4.20;;;;;;;;;;4982645;28;24417;-63
2021/08/14 14:31:22;;;;;;;5.03;4.63;;;;;;;;;;4984042;28;24421;-63